Airport View

Enter AWOS ICAO identifier for current METAR.

ex. KFNL

KRDU 300251Z 20011KT 10SM BKN015 OVC240 24/21 A2954 RMK AO2 SLP998 T02390211 58006

30 Oct 2020 03:54

Phone: 919-840-0816

Other Area AWOS: KIGX - KTTA - KLHZ - KTDF

TAF AMD KRDU 300201Z 3002/3024 21014G21KT P6SM BKN015 OVC240 TEMPO 3003/3006 VRB15G35KT 2SM TSRA BKN025CB FM300600 25010G20KT P6SM SCT020 BKN025 FM301300 31011G19KT P6SM FEW025